createdAt,value
2023-04-02T00:00:31.119Z,5.00
2023-04-02T00:03:46.187Z,4.75
2023-04-02T00:06:55.781Z,4.73
2023-04-02T00:09:58.963Z,4.45
2023-04-02T00:13:04.352Z,4.28
2023-04-02T00:16:11.494Z,4.53
2023-04-02T00:19:20.373Z,5.10
2023-04-02T00:22:29.605Z,4.40
2023-04-02T00:25:36.946Z,4.25
2023-04-02T00:28:39.790Z,4.70
2023-04-02T00:31:48.330Z,4.80
2023-04-02T00:34:51.420Z,4.93
2023-04-02T00:37:54.981Z,4.30
2023-04-02T00:41:01.881Z,4.28
2023-04-02T00:44:06.138Z,4.95
2023-04-02T00:47:22.030Z,4.47
2023-04-02T00:50:29.055Z,4.53
2023-04-02T00:53:32.436Z,4.03
2023-04-02T00:56:41.758Z,4.18
2023-04-02T00:59:55.747Z,4.90
2023-04-02T01:03:36.492Z,4.40
2023-04-02T01:06:40.010Z,4.05
2023-04-02T01:10:08.286Z,4.23
2023-04-02T01:13:29.950Z,4.35
2023-04-02T01:16:33.302Z,4.40
2023-04-02T01:20:12.441Z,3.90
2023-04-02T01:23:30.323Z,4.30
2023-04-02T01:27:02.457Z,3.73
2023-04-02T01:30:12.096Z,4.25
2023-04-02T01:33:15.119Z,4.22
2023-04-02T01:36:38.062Z,3.88
2023-04-02T01:40:06.467Z,4.13
2023-04-02T01:43:26.685Z,3.67
2023-04-02T01:46:33.600Z,3.53
2023-04-02T01:49:36.575Z,4.28
2023-04-02T01:52:41.999Z,3.88
2023-04-02T01:55:52.680Z,3.83
2023-04-02T01:58:57.927Z,3.33
2023-04-02T02:02:05.723Z,4.05
2023-04-02T02:05:16.702Z,4.28
2023-04-02T02:08:37.296Z,3.67
2023-04-02T02:11:41.282Z,3.53
2023-04-02T02:14:52.389Z,3.70
2023-04-02T02:18:03.563Z,3.72
2023-04-02T02:21:09.677Z,3.75
2023-04-02T02:24:26.779Z,3.63
2023-04-02T02:27:29.452Z,3.03
2023-04-02T02:30:53.245Z,3.90
2023-04-02T02:34:07.533Z,3.50
2023-04-02T02:37:20.669Z,3.67
2023-04-02T02:40:34.343Z,3.75
2023-04-02T02:43:42.272Z,3.50
2023-04-02T02:47:00.205Z,3.43
2023-04-02T02:50:08.869Z,3.70
2023-04-02T02:53:21.339Z,3.58
2023-04-02T02:56:25.455Z,3.00
2023-04-02T02:59:31.067Z,3.25
2023-04-02T03:02:38.685Z,3.33
2023-04-02T03:05:44.282Z,3.58
2023-04-02T03:09:12.566Z,3.13
2023-04-02T03:12:54.852Z,3.20
2023-04-02T03:16:20.543Z,3.10
2023-04-02T03:19:33.907Z,3.63
2023-04-02T03:22:48.105Z,3.25
2023-04-02T03:26:23.318Z,3.20
2023-04-02T03:29:30.921Z,3.05
2023-04-02T03:32:39.369Z,3.10
2023-04-02T03:35:48.588Z,3.10
2023-04-02T03:39:24.274Z,2.80
2023-04-02T03:42:37.125Z,3.30
2023-04-02T03:45:44.127Z,2.88
2023-04-02T03:48:53.069Z,2.80
2023-04-02T03:52:10.266Z,2.93
2023-04-02T03:55:28.901Z,3.15
2023-04-02T03:58:47.156Z,3.45
2023-04-02T04:02:06.936Z,3.25
2023-04-02T04:05:23.291Z,3.20
2023-04-02T04:08:42.686Z,3.10
2023-04-02T04:11:48.615Z,2.75
2023-04-02T04:15:33.432Z,3.13
2023-04-02T04:19:03.194Z,2.83
2023-04-02T04:22:22.044Z,2.92
2023-04-02T04:25:30.142Z,2.77
2023-04-02T04:29:15.926Z,2.30
2023-04-02T04:32:27.872Z,3.17
2023-04-02T04:35:39.537Z,2.83
2023-04-02T04:38:55.754Z,3.13
2023-04-02T04:42:02.427Z,3.17
2023-04-02T04:45:32.051Z,3.17
2023-04-02T04:48:47.545Z,2.90
2023-04-02T04:52:09.296Z,2.97
2023-04-02T04:55:26.794Z,2.63
2023-04-02T04:58:40.899Z,2.70
2023-04-02T05:02:15.284Z,3.03
2023-04-02T05:05:24.393Z,2.88
2023-04-02T05:08:33.441Z,3.08
2023-04-02T05:11:45.909Z,2.97
2023-04-02T05:14:54.798Z,2.73
2023-04-02T05:18:28.369Z,2.85
2023-04-02T05:21:55.874Z,3.10
2023-04-02T05:25:09.248Z,3.00
2023-04-02T05:28:26.732Z,3.10
2023-04-02T05:31:39.518Z,2.57
2023-04-02T05:34:48.422Z,2.85
2023-04-02T05:37:51.447Z,2.92
2023-04-02T05:41:20.844Z,2.65
2023-04-02T05:44:41.781Z,2.80
2023-04-02T05:47:47.291Z,2.50
2023-04-02T05:50:57.418Z,2.90
2023-04-02T05:54:13.387Z,3.08
2023-04-02T05:57:24.887Z,2.85
2023-04-02T06:00:39.637Z,3.35
2023-04-02T06:04:11.946Z,2.83
2023-04-02T06:07:20.731Z,2.83
2023-04-02T06:10:34.273Z,2.65
2023-04-02T06:13:38.042Z,2.72
2023-04-02T06:16:44.817Z,3.03
2023-04-02T06:19:49.006Z,3.00
2023-04-02T06:23:28.566Z,2.80
2023-04-02T06:26:39.745Z,2.78
2023-04-02T06:29:45.974Z,2.80
2023-04-02T06:32:53.367Z,2.75
2023-04-02T06:35:59.132Z,2.70
2023-04-02T06:39:11.554Z,2.45
2023-04-02T06:42:22.444Z,2.53
2023-04-02T06:45:46.606Z,2.80
2023-04-02T06:49:22.935Z,2.80
2023-04-02T06:52:37.512Z,2.50
2023-04-02T06:55:50.736Z,2.63
2023-04-02T06:58:59.137Z,3.33
2023-04-02T07:02:06.817Z,3.17
2023-04-02T07:05:14.157Z,2.75
2023-04-02T07:08:22.304Z,2.77
2023-04-02T07:11:26.327Z,2.50
2023-04-02T07:14:32.582Z,2.30
2023-04-02T07:17:35.667Z,2.47
2023-04-02T07:20:38.519Z,2.45
2023-04-02T07:23:45.543Z,2.80
2023-04-02T07:26:48.424Z,2.70
2023-04-02T07:29:52.064Z,2.75
2023-04-02T07:32:55.186Z,2.50
2023-04-02T07:35:58.725Z,2.65
2023-04-02T07:39:02.177Z,2.13
2023-04-02T07:42:04.886Z,2.45
2023-04-02T07:45:08.325Z,2.72
2023-04-02T07:48:13.104Z,2.30
2023-04-02T07:51:24.518Z,3.03
2023-04-02T07:54:28.458Z,2.40
2023-04-02T07:57:31.453Z,2.55
2023-04-02T08:00:34.289Z,2.70
2023-04-02T08:03:37.151Z,2.90
2023-04-02T08:06:39.998Z,2.40
2023-04-02T08:09:42.761Z,2.63
2023-04-02T08:12:45.898Z,2.67
2023-04-02T08:15:48.563Z,2.25
2023-04-02T08:18:51.680Z,2.30
2023-04-02T08:21:54.603Z,2.60
2023-04-02T08:24:57.667Z,2.20
2023-04-02T08:28:01.749Z,2.30
2023-04-02T08:31:04.968Z,2.40
2023-04-02T08:34:08.478Z,2.63
2023-04-02T08:37:14.186Z,2.42
2023-04-02T08:40:38.092Z,2.33
2023-04-02T08:44:10.002Z,2.10
2023-04-02T08:47:14.515Z,2.67
2023-04-02T08:50:29.268Z,2.15
2023-04-02T08:53:36.946Z,2.63
2023-04-02T08:56:43.586Z,2.40
2023-04-02T08:59:48.079Z,2.50
2023-04-02T09:03:01.512Z,2.40
2023-04-02T09:06:05.737Z,2.25
2023-04-02T09:09:09.160Z,2.55
2023-04-02T09:12:24.315Z,2.60
2023-04-02T09:15:34.427Z,2.20
2023-04-02T09:18:38.697Z,2.33
2023-04-02T09:21:47.204Z,2.33
2023-04-02T09:24:55.079Z,2.45
2023-04-02T09:28:01.566Z,2.33
2023-04-02T09:31:22.327Z,2.33
2023-04-02T09:34:32.449Z,2.55
2023-04-02T09:37:35.364Z,1.95
2023-04-02T09:41:02.708Z,2.70
2023-04-02T09:44:25.748Z,2.03
2023-04-02T09:47:28.933Z,2.30
2023-04-02T09:50:34.085Z,2.40
2023-04-02T09:53:39.944Z,2.25
2023-04-02T09:57:04.205Z,2.20
2023-04-02T10:00:25.271Z,2.80
2023-04-02T10:03:33.305Z,2.30
2023-04-02T10:06:36.488Z,2.45
2023-04-02T10:09:39.280Z,1.80
2023-04-02T10:12:43.918Z,2.30
2023-04-02T10:15:57.505Z,2.03
2023-04-02T10:19:40.942Z,2.10
2023-04-02T10:22:45.109Z,2.38
2023-04-02T10:25:57.921Z,2.22
2023-04-02T10:29:15.839Z,2.22
2023-04-02T10:32:52.270Z,2.10
2023-04-02T10:35:58.422Z,1.95
2023-04-02T10:39:38.813Z,2.33
2023-04-02T10:43:14.281Z,2.00
2023-04-02T10:46:34.849Z,2.13
2023-04-02T10:50:00.233Z,2.30
2023-04-02T10:53:14.626Z,2.20
2023-04-02T10:56:17.687Z,2.70
2023-04-02T10:59:27.225Z,2.15
2023-04-02T11:02:37.784Z,2.30
2023-04-02T11:05:49.474Z,2.40
2023-04-02T11:09:01.340Z,2.00
2023-04-02T11:12:06.032Z,2.20
2023-04-02T11:15:19.207Z,1.95
2023-04-02T11:18:27.819Z,2.10
2023-04-02T11:21:30.526Z,1.70
2023-04-02T11:24:43.498Z,2.10
2023-04-02T11:27:47.012Z,2.00
2023-04-02T11:30:49.960Z,2.03
2023-04-02T11:33:53.904Z,2.17
2023-04-02T11:36:57.048Z,2.20
2023-04-02T11:40:01.729Z,1.98
2023-04-02T11:43:36.112Z,2.33
2023-04-02T11:46:45.947Z,2.00
2023-04-02T11:49:55.568Z,2.10
2023-04-02T11:53:10.445Z,2.00
2023-04-02T11:56:31.462Z,1.80
2023-04-02T11:59:45.653Z,2.03
2023-04-02T12:03:13.697Z,1.98
2023-04-02T12:06:42.807Z,2.10
2023-04-02T12:09:49.931Z,1.90
2023-04-02T12:12:53.060Z,1.80
2023-04-02T12:15:59.118Z,2.08
2023-04-02T12:19:02.678Z,2.20
2023-04-02T12:22:05.987Z,1.73
2023-04-02T12:25:23.843Z,2.03
2023-04-02T12:28:34.020Z,1.85
2023-04-02T12:31:37.791Z,2.20
2023-04-02T12:34:46.380Z,2.20
2023-04-02T12:37:53.288Z,2.20
2023-04-02T12:40:59.327Z,1.90
2023-04-02T12:44:03.062Z,2.13
2023-04-02T12:47:06.574Z,2.10
2023-04-02T12:50:15.628Z,1.73
2023-04-02T12:53:24.840Z,1.90
2023-04-02T12:56:27.630Z,1.87
2023-04-02T12:59:36.789Z,1.90
2023-04-02T13:02:47.631Z,1.63
2023-04-02T13:05:56.572Z,1.75
2023-04-02T13:09:01.357Z,2.00
2023-04-02T13:12:04.761Z,1.87
2023-04-02T13:15:18.809Z,1.70
2023-04-02T13:18:23.402Z,2.22
2023-04-02T13:21:30.463Z,2.15
2023-04-02T13:24:34.042Z,1.92
2023-04-02T13:27:37.331Z,1.80
2023-04-02T13:30:42.042Z,1.92
2023-04-02T13:33:45.022Z,2.00
2023-04-02T13:36:48.526Z,1.83
2023-04-02T13:39:51.420Z,1.98
2023-04-02T13:42:54.569Z,2.00
2023-04-02T13:45:59.528Z,1.58
2023-04-02T13:49:05.019Z,1.90
2023-04-02T13:52:15.321Z,1.63
2023-04-02T13:55:21.592Z,1.75
2023-04-02T13:58:25.283Z,2.07
2023-04-02T14:01:28.544Z,1.80
2023-04-02T14:04:36.322Z,2.00
2023-04-02T14:07:46.963Z,1.85
2023-04-02T14:10:51.094Z,1.90
2023-04-02T14:14:20.573Z,1.70
2023-04-02T14:17:35.268Z,1.80
2023-04-02T14:20:47.504Z,1.85
2023-04-02T14:23:57.514Z,2.00
2023-04-02T14:27:09.734Z,1.90
2023-04-02T14:30:40.569Z,1.60
2023-04-02T14:34:01.541Z,1.73
2023-04-02T14:37:36.553Z,1.75
2023-04-02T14:40:54.504Z,1.60
2023-04-02T14:44:04.542Z,1.70
2023-04-02T14:47:48.229Z,1.87
2023-04-02T14:50:59.335Z,1.77
2023-04-02T14:54:14.144Z,1.88
2023-04-02T14:57:33.128Z,1.83
2023-04-02T15:00:44.079Z,1.77
2023-04-02T15:04:04.957Z,1.70
2023-04-02T15:07:24.970Z,1.90
2023-04-02T15:11:06.606Z,2.35
2023-04-02T15:14:28.627Z,1.52
2023-04-02T15:17:32.589Z,1.92
2023-04-02T15:20:45.255Z,2.20
2023-04-02T15:24:17.580Z,1.52
2023-04-02T15:27:35.915Z,1.75
2023-04-02T15:30:50.195Z,1.85
2023-04-02T15:34:22.295Z,1.65
2023-04-02T15:38:05.599Z,1.73
2023-04-02T15:41:28.088Z,1.75
2023-04-02T15:44:31.594Z,1.92
2023-04-02T15:47:47.273Z,1.75
2023-04-02T15:50:50.755Z,1.63
2023-04-02T15:54:26.440Z,1.77
2023-04-02T15:57:59.779Z,1.70
2023-04-02T16:01:15.659Z,1.67
2023-04-02T16:04:43.248Z,2.00
2023-04-02T16:07:56.522Z,1.90
2023-04-02T16:10:59.708Z,1.67
2023-04-02T16:14:32.486Z,1.60
2023-04-02T16:17:42.549Z,1.83
2023-04-02T16:20:51.510Z,1.85
2023-04-02T16:23:55.034Z,1.80
2023-04-02T16:27:25.779Z,1.70
2023-04-02T16:30:42.279Z,1.42
2023-04-02T16:33:50.169Z,1.92
2023-04-02T16:36:56.390Z,1.70
2023-04-02T16:40:57.065Z,1.98
2023-04-02T16:44:14.425Z,1.80
2023-04-02T16:47:23.701Z,1.33
2023-04-02T16:50:44.445Z,1.90
2023-04-02T16:54:01.649Z,1.65
2023-04-02T16:57:42.892Z,1.70
2023-04-02T17:00:55.790Z,1.70
2023-04-02T17:04:16.637Z,1.90
2023-04-02T17:08:04.502Z,1.80
2023-04-02T17:11:10.676Z,1.60
2023-04-02T17:14:42.335Z,1.90
2023-04-02T17:17:46.345Z,2.00
2023-04-02T17:20:51.942Z,1.80
2023-04-02T17:24:07.235Z,1.50
2023-04-02T17:27:22.140Z,1.85
2023-04-02T17:30:48.233Z,1.80
2023-04-02T17:33:51.975Z,1.83
2023-04-02T17:37:19.102Z,1.30
2023-04-02T17:40:52.677Z,1.35
2023-04-02T17:44:11.442Z,1.70
2023-04-02T17:47:25.337Z,1.95
2023-04-02T17:51:30.631Z,1.50
2023-04-02T17:54:58.627Z,1.63
2023-04-02T17:58:20.427Z,1.55
2023-04-02T18:01:51.854Z,1.55
2023-04-02T18:05:09.346Z,1.80
2023-04-02T18:08:19.516Z,1.23
2023-04-02T18:11:41.680Z,1.88
2023-04-02T18:15:17.261Z,1.85
2023-04-02T18:18:44.168Z,1.60
2023-04-02T18:21:54.502Z,1.73
2023-04-02T18:25:27.953Z,1.60
2023-04-02T18:28:41.953Z,1.40
2023-04-02T18:32:20.128Z,1.50
2023-04-02T18:35:40.000Z,1.60
2023-04-02T18:38:51.956Z,1.77
2023-04-02T18:42:10.227Z,1.20
2023-04-02T18:45:22.634Z,1.63
2023-04-02T18:48:33.657Z,1.65
2023-04-02T18:51:41.359Z,1.50
2023-04-02T18:55:20.350Z,1.55
2023-04-02T18:58:53.886Z,1.47
2023-04-02T19:02:03.109Z,1.35
2023-04-02T19:05:29.776Z,1.70
2023-04-02T19:08:52.916Z,1.42
2023-04-02T19:11:57.301Z,1.65
2023-04-02T19:15:02.286Z,1.47
2023-04-02T19:18:37.106Z,1.55
2023-04-02T19:22:09.742Z,1.48
2023-04-02T19:25:30.415Z,1.10
2023-04-02T19:28:56.863Z,1.45
2023-04-02T19:32:23.293Z,1.40
2023-04-02T19:35:48.737Z,1.63
2023-04-02T19:39:48.892Z,1.63
2023-04-02T19:42:54.451Z,1.40
2023-04-02T19:45:59.010Z,1.40
2023-04-02T19:49:12.173Z,1.70
2023-04-02T19:52:16.933Z,1.70
2023-04-02T19:55:21.088Z,1.40
2023-04-02T19:58:30.650Z,1.20
2023-04-02T20:01:34.645Z,1.40
2023-04-02T20:04:40.306Z,1.70
2023-04-02T20:07:47.272Z,1.42
2023-04-02T20:10:51.609Z,1.48
2023-04-02T20:13:55.686Z,1.77
2023-04-02T20:16:59.467Z,1.50
2023-04-02T20:20:03.376Z,1.47
2023-04-02T20:23:08.781Z,1.40
2023-04-02T20:26:16.389Z,1.83
2023-04-02T20:29:19.637Z,1.55
2023-04-02T20:32:22.880Z,1.40
2023-04-02T20:35:27.956Z,1.20
2023-04-02T20:38:32.225Z,1.27
2023-04-02T20:41:37.460Z,1.70
2023-04-02T20:44:41.657Z,1.52
2023-04-02T20:47:44.653Z,1.48
2023-04-02T20:50:48.891Z,1.20
2023-04-02T20:53:55.326Z,1.60
2023-04-02T20:56:58.357Z,1.50
2023-04-02T21:00:03.489Z,1.52
2023-04-02T21:03:07.367Z,1.77
2023-04-02T21:06:15.552Z,1.33
2023-04-02T21:09:19.655Z,1.60
2023-04-02T21:12:24.544Z,1.42
2023-04-02T21:15:27.338Z,1.77
2023-04-02T21:18:30.532Z,1.50
2023-04-02T21:21:34.850Z,1.20
2023-04-02T21:24:37.582Z,1.23
2023-04-02T21:27:40.501Z,1.92
2023-04-02T21:30:43.223Z,1.30
2023-04-02T21:33:49.177Z,1.40
2023-04-02T21:36:52.366Z,1.47
2023-04-02T21:39:55.185Z,1.30
2023-04-02T21:42:57.935Z,1.67
2023-04-02T21:46:01.606Z,1.48
2023-04-02T21:49:05.442Z,1.50
2023-04-02T21:52:08.288Z,1.50
2023-04-02T21:55:11.126Z,1.60
2023-04-02T21:58:13.956Z,1.77
2023-04-02T22:01:26.636Z,1.38
2023-04-02T22:04:30.807Z,1.70
2023-04-02T22:07:33.588Z,1.30
2023-04-02T22:10:36.688Z,1.40
2023-04-02T22:13:41.218Z,1.48
2023-04-02T22:16:44.064Z,1.45
2023-04-02T22:19:46.769Z,1.50
2023-04-02T22:22:51.588Z,1.30
2023-04-02T22:25:55.441Z,1.25
2023-04-02T22:28:58.686Z,1.73
2023-04-02T22:32:01.422Z,1.20
2023-04-02T22:35:04.466Z,1.65
2023-04-02T22:38:07.436Z,1.30
2023-04-02T22:41:13.211Z,1.30
2023-04-02T22:44:16.148Z,1.40
2023-04-02T22:47:18.894Z,1.60
2023-04-02T22:50:22.140Z,1.75
2023-04-02T22:53:25.045Z,1.40
2023-04-02T22:56:32.058Z,1.60
2023-04-02T22:59:35.017Z,1.73
2023-04-02T23:02:38.882Z,1.40
2023-04-02T23:05:42.663Z,1.40
2023-04-02T23:08:46.298Z,1.50
2023-04-02T23:11:49.461Z,1.50
2023-04-02T23:14:52.868Z,1.40
2023-04-02T23:17:55.662Z,1.50
2023-04-02T23:20:58.632Z,1.70
2023-04-02T23:24:01.412Z,1.43
2023-04-02T23:27:04.161Z,1.60
2023-04-02T23:30:08.895Z,1.48
2023-04-02T23:33:11.736Z,1.40
2023-04-02T23:36:32.957Z,1.50
2023-04-02T23:39:36.114Z,1.23
2023-04-02T23:42:38.909Z,1.50
2023-04-02T23:45:41.798Z,1.23
2023-04-02T23:48:46.033Z,1.35
2023-04-02T23:51:49.445Z,1.52
2023-04-02T23:54:52.385Z,1.20
2023-04-02T23:57:55.134Z,1.33
